Torm Lilly — OUPJ2 — position and weather

sailwx.info

Track history (hours):
 
Tides and Currents Weather Stations Pressure Air Temp Water Temp Dewpoint Dewpoint Depression Visibility Wind Speed Wind Dir Waves Ship Positions

Torm Lilly

Last reported at 2018-Feb-25 06:39 UTC. Time now 2018-Feb-25 20:00 UTC.
Position N 59°33' E 022°47'.

Length 183 m; draft 12.7 m.

Type: Ship. MMSI: 220634000.

Date/timePositionNaut miles runAvg speedWind from/ knotsBaromVisibWave heightAir tempDewpointWater temp
2018-Feb-25 06:39N 59°33' E 022°47'313.5
2018-Feb-25 06:23N 59°34' E 022°54'913.4
2018-Feb-25 05:44N 59°36' E 023°10'313.8
2018-Feb-25 05:30N 59°37' E 023°16'713.8
2018-Feb-25 05:00N 59°39' E 023°29'713.5
2018-Feb-25 04:30N 59°41' E 023°42'613.0
2018-Feb-25 04:00N 59°43' E 023°54'713.1
2018-Feb-25 03:28N 59°45' E 024°08'613.1
2018-Feb-25 03:01N 59°47' E 024°19'613.0
2018-Feb-25 02:31N 59°48' E 024°32'713.3
2018-Feb-25 02:01N 59°50' E 024°45'713.1
2018-Feb-25 01:29N 59°52' E 024°58'1012.9
2018-Feb-25 00:43N 59°54' E 025°17'313.1
2018-Feb-25 00:30N 59°55' E 025°22'612.6
2018-Feb-25 00:00N 59°59' E 025°32'17 0.4
2018-Feb-23 08:48N 60°16' E 025°33'611.8
2018-Feb-23 08:18N 60°11' E 025°38'310.1
2018-Feb-23 07:57N 60°07' E 025°39'510.6
2018-Feb-23 07:28N 60°03' E 025°34'3 5.9
2018-Feb-23 07:00N 60°00' E 025°30'1 1.0
2018-Feb-23 06:28N 60°00' E 025°29'0 0.2
2018-Feb-23 05:58N 60°00' E 025°29'0 0.1
2018-Feb-23 05:28N 60°01' E 025°29'0 0.1
2018-Feb-23 04:58N 60°01' E 025°29'0 0.2
2018-Feb-23 04:28N 60°01' E 025°29'0 0.0
2018-Feb-23 03:58N 60°01' E 025°29'0 0.0
2018-Feb-23 03:28N 60°01' E 025°29'0 0.0
2018-Feb-23 02:58N 60°01' E 025°29'0 0.1
2018-Feb-23 02:28N 60°01' E 025°29'0 0.1
2018-Feb-23 01:58N 60°01' E 025°29'0 0.0
2018-Feb-23 01:25N 60°01' E 025°29'0 0.0
2018-Feb-23 00:58N 60°01' E 025°29'0 0.0
2018-Feb-23 00:28N 60°01' E 025°29'0 0.0
2018-Feb-22 23:58N 60°01' E 025°29'0 0.1
2018-Feb-22 23:28N 60°01' E 025°29'0 0.0
2018-Feb-22 22:58N 60°00' E 025°29'0 0.1
2018-Feb-22 22:28N 60°00' E 025°29'0 0.1
2018-Feb-22 21:58N 60°00' E 025°29'0 0.1
2018-Feb-22 21:28N 60°00' E 025°29'0 0.2
2018-Feb-22 20:52N 60°00' E 025°29'0 1.0
2018-Feb-22 20:30N 60°00' E 025°30'4 8.4
2018-Feb-22 20:00N 59°56' E 025°28'713.2
2018-Feb-22 19:29N 59°51' E 025°20'612.6
2018-Feb-22 19:00N 59°48' E 025°09'713.2
2018-Feb-22 18:30N 59°47' E 024°56'713.4
2018-Feb-22 18:00N 59°45' E 024°43'713.2
2018-Feb-22 17:30N 59°44' E 024°30'713.1
2018-Feb-22 17:00N 59°41' E 024°18'713.4
2018-Feb-22 16:30N 59°36' E 024°10'713.8
2018-Feb-22 16:00N 59°30' E 024°02'713.9
2018-Feb-22 15:30N 59°28' E 023°49'714.1
2018-Feb-22 15:00N 59°27' E 023°35'713.8
2018-Feb-22 14:29N 59°24' E 023°22'27313.2
2018-Feb-21 17:44N 56°15' E 017°13'813.3
2018-Feb-21 17:09N 56°10' E 017°02'213.3
2018-Feb-21 17:00N 56°09' E 016°59'713.4
2018-Feb-21 16:31N 56°05' E 016°49'713.4
2018-Feb-21 16:00N 56°02' E 016°39'713.5
2018-Feb-21 15:31N 55°59' E 016°28'713.4
2018-Feb-21 15:01N 55°55' E 016°18'713.6
2018-Feb-21 14:31N 55°52' E 016°07'713.7
2018-Feb-21 14:00N 55°48' E 015°57'713.8
2018-Feb-21 13:30N 55°45' E 015°46'713.7
2018-Feb-21 13:00N 55°42' E 015°35'713.8
2018-Feb-21 12:31N 55°39' E 015°24'713.8
2018-Feb-21 12:00N 55°35' E 015°14'713.7
2018-Feb-21 11:30N 55°32' E 015°03'813.7
2018-Feb-21 10:53N 55°27' E 014°50'513.6
2018-Feb-21 10:30N 55°25' E 014°42'813.6
2018-Feb-21 09:54N 55°19' E 014°33'513.5
2018-Feb-21 09:30N 55°15' E 014°27'713.3
2018-Feb-21 08:58N 55°09' E 014°19'712.6
2018-Feb-21 08:22N 55°10' E 014°05'2213.5
2018-Feb-21 06:46N 55°11' E 013°28'413.5
2018-Feb-21 06:30N 55°12' E 013°21'713.6
2018-Feb-21 05:59N 55°12' E 013°09'713.5
2018-Feb-21 05:30N 55°14' E 012°58'713.5
2018-Feb-21 05:00N 55°16' E 012°47'612.0
2018-Feb-21 04:30N 55°19' E 012°38'713.6
2018-Feb-21 04:00N 55°26' E 012°40'611.7
2018-Feb-21 03:30N 55°31' E 012°45'4 8.8
2018-Feb-21 03:00N 55°35' E 012°50'5 9.2
2018-Feb-21 02:30N 55°38' E 012°55'510.4
2018-Feb-21 02:00N 55°43' E 012°53'714.1
2018-Feb-21 01:30N 55°49' E 012°46'713.9
2018-Feb-21 01:00N 55°56' E 012°43'714.1
2018-Feb-21 00:30N 56°03' E 012°39'612.2
2018-Feb-21 00:00N 56°07' E 012°31'3 6.7
2018-Feb-20 23:30N 56°09' E 012°26'611.1
2018-Feb-20 23:00N 56°12' E 012°18'4913.2
2018-Feb-20 19:17N 56°57' E 011°44'414.0
2018-Feb-20 19:00N 57°01' E 011°42'813.6
2018-Feb-20 18:26N 57°08' E 011°37'613.5
2018-Feb-20 18:00N 57°13' E 011°33'713.5
2018-Feb-20 17:30N 57°20' E 011°29'713.2
2018-Feb-20 17:00N 57°26' E 011°25'612.6
2018-Feb-20 16:30N 57°31' E 011°18'612.8
2018-Feb-20 16:00N 57°35' E 011°09'612.9
2018-Feb-20 15:30N 57°39' E 010°60'713.5
2018-Feb-20 15:00N 57°44' E 010°51'612.8
2018-Feb-20 14:31N 57°48' E 010°41'612.5
2018-Feb-20 14:00N 57°50' E 010°30'26212.1
2018-Feb-19 16:28N 54°39' E 005°07'813.6
2018-Feb-19 15:54N 54°33' E 004°60'513.6
2018-Feb-19 15:30N 54°28' E 004°55'713.7
2018-Feb-19 14:59N 54°22' E 004°49'713.8
2018-Feb-19 14:30N 54°16' E 004°45'11211.9
2018-Feb-19 05:01N 52°31' E 003°35'512.6
2018-Feb-19 04:36N 52°31' E 003°43'312.6
2018-Feb-19 04:23N 52°31' E 003°48'512.6
2018-Feb-19 03:58N 52°31' E 003°56'612.8
2018-Feb-19 03:30N 52°31' E 004°06'713.6
2018-Feb-19 03:00N 52°31' E 004°17'713.7
2018-Feb-19 02:30N 52°28' E 004°28'510.2
2018-Feb-19 02:00N 52°28' E 004°36'0 0.7
2018-Feb-19 01:30N 52°28' E 004°37'3 5.8
2018-Feb-19 01:00N 52°27' E 004°41'3 6.2
2018-Feb-19 00:30N 52°25' E 004°45'0 0.1
2018-Feb-18 23:55N 52°25' E 004°45'0 0.0
2018-Feb-18 22:58N 52°25' E 004°45'0 0.0
2018-Feb-18 21:52N 52°25' E 004°45'0 0.0
2018-Feb-18 21:16N 52°25' E 004°45'0 0.0
2018-Feb-18 20:55N 52°25' E 004°45'0 0.0
2018-Feb-18 20:22N 52°25' E 004°45'0 0.0
2018-Feb-18 19:52N 52°25' E 004°45'0 0.0
2018-Feb-18 19:28N 52°25' E 004°45'0 0.0
2018-Feb-18 18:58N 52°25' E 004°45'0 0.0
2018-Feb-18 18:28N 52°25' E 004°45'0 0.0
2018-Feb-18 17:04N 52°25' E 004°45'0 0.0
2018-Feb-18 16:46N 52°25' E 004°45'0 0.0
2018-Feb-18 16:16N 52°25' E 004°45'0 0.0
2018-Feb-18 13:58N 52°25' E 004°45'0 0.0
2018-Feb-18 13:19N 52°25' E 004°45'0 0.0
2018-Feb-18 12:58N 52°25' E 004°45'0 0.0
2018-Feb-18 12:04N 52°25' E 004°45'0 0.0
2018-Feb-18 11:46N 52°25' E 004°45'0 0.0
2018-Feb-18 11:28N 52°25' E 004°45'0 0.0
2018-Feb-18 10:40N 52°25' E 004°45'0 0.0
2018-Feb-18 10:28N 52°25' E 004°45'0 0.0
2018-Feb-18 09:43N 52°25' E 004°45'0 0.0
2018-Feb-18 09:28N 52°25' E 004°45'0 0.0
2018-Feb-18 08:58N 52°25' E 004°45'0 0.0
2018-Feb-18 08:28N 52°25' E 004°45'0 0.0
2018-Feb-18 07:58N 52°25' E 004°45'0 0.0
2018-Feb-18 07:28N 52°25' E 004°45'0 0.0
2018-Feb-18 06:46N 52°25' E 004°45'0 0.0
2018-Feb-18 06:28N 52°25' E 004°45'0 0.0
2018-Feb-18 05:40N 52°25' E 004°45'0 0.0
2018-Feb-18 05:28N 52°25' E 004°45'0 0.0
2018-Feb-18 04:52N 52°25' E 004°45'0 0.0
2018-Feb-18 04:22N 52°25' E 004°45'0 0.0
2018-Feb-18 03:16N 52°25' E 004°45'0 0.0
2018-Feb-18 03:00N 52°25' E 004°45'0 0.7
2018-Feb-18 02:30N 52°25' E 004°45'1 2.9
2018-Feb-18 02:00N 52°26' E 004°47'3 6.8
2018-Feb-18 01:30N 52°24' E 004°52'0 0.9
2018-Feb-18 01:00N 52°24' E 004°52'0 0.1
2018-Feb-18 00:31N 52°24' E 004°52'0 0.1
2018-Feb-18 00:01N 52°24' E 004°52'0 0.0
2018-Feb-17 23:30N 52°24' E 004°52'0 0.0
2018-Feb-17 23:00N 52°24' E 004°52'0 0.0
2018-Feb-17 22:30N 52°24' E 004°52'0 0.0
2018-Feb-17 22:00N 52°24' E 004°52'0 0.0
2018-Feb-17 21:30N 52°24' E 004°52'0 0.0
2018-Feb-17 21:01N 52°24' E 004°52'0 0.0
2018-Feb-17 20:30N 52°24' E 004°52'0 0.0
2018-Feb-17 20:01N 52°24' E 004°52'0 0.0
2018-Feb-17 19:31N 52°24' E 004°52'0 0.0
2018-Feb-17 19:01N 52°24' E 004°52'0 0.0
2018-Feb-17 18:30N 52°24' E 004°52'0 0.0
2018-Feb-17 18:01N 52°24' E 004°52'0 0.0
2018-Feb-17 17:31N 52°24' E 004°52'0 0.0
2018-Feb-17 17:00N 52°24' E 004°52'0 0.0
2018-Feb-17 16:30N 52°24' E 004°52'0 0.0
2018-Feb-17 16:00N 52°24' E 004°52'0 0.0
2018-Feb-17 15:30N 52°24' E 004°52'0 0.0
2018-Feb-17 15:00N 52°24' E 004°52'0 0.0
2018-Feb-17 14:30N 52°24' E 004°52'0 0.0
2018-Feb-17 14:01N 52°24' E 004°52'0 0.0
2018-Feb-17 13:31N 52°24' E 004°52'0 0.0
2018-Feb-17 13:00N 52°24' E 004°52'0 0.0
2018-Feb-17 12:31N 52°24' E 004°52'0 0.0
2018-Feb-17 12:01N 52°24' E 004°52'0 0.0
2018-Feb-17 11:31N 52°24' E 004°52'0 0.0
2018-Feb-17 11:01N 52°24' E 004°52'0 0.0
2018-Feb-17 10:30N 52°24' E 004°52'0 0.0
2018-Feb-17 10:00N 52°24' E 004°52'0 0.0
2018-Feb-17 09:31N 52°24' E 004°52'0 0.0
2018-Feb-17 09:01N 52°24' E 004°52'0 0.0
2018-Feb-17 08:31N 52°24' E 004°52'0 0.0
2018-Feb-17 08:00N 52°24' E 004°52'0 0.0
2018-Feb-17 07:30N 52°24' E 004°52'0 0.0
2018-Feb-17 07:01N 52°24' E 004°52'0 0.0
2018-Feb-17 06:31N 52°24' E 004°52'0 0.0
2018-Feb-17 06:01N 52°24' E 004°52'0 0.0
2018-Feb-17 05:30N 52°24' E 004°52'0 0.0
2018-Feb-17 05:01N 52°24' E 004°52'0 0.0
2018-Feb-17 04:30N 52°24' E 004°52'0 0.0
2018-Feb-17 04:00N 52°24' E 004°52'0 0.0
2018-Feb-17 03:31N 52°24' E 004°52'0 0.0
2018-Feb-17 03:01N 52°24' E 004°52'0 0.0
2018-Feb-17 02:30N 52°24' E 004°52'0 0.0
2018-Feb-17 02:01N 52°24' E 004°52'0 0.0
2018-Feb-17 01:31N 52°24' E 004°52'0 0.0
2018-Feb-17 01:01N 52°24' E 004°52'0 0.0
2018-Feb-17 00:31N 52°24' E 004°52'0 0.0
2018-Feb-17 00:01N 52°24' E 004°52'0 0.0
2018-Feb-16 23:30N 52°24' E 004°52'0 0.0
2018-Feb-16 23:01N 52°24' E 004°52'0 0.0
2018-Feb-16 22:31N 52°24' E 004°52'0 0.2
2018-Feb-16 22:01N 52°24' E 004°52'1 1.8
2018-Feb-16 21:31N 52°25' E 004°52'2 3.1
2018-Feb-16 21:00N 52°25' E 004°49'0 0.8
2018-Feb-16 20:28N 52°24' E 004°50'0 0.0
2018-Feb-16 19:43N 52°24' E 004°50'0 0.0
2018-Feb-16 19:25N 52°24' E 004°50'0 0.0
2018-Feb-16 18:55N 52°24' E 004°50'0 0.0
2018-Feb-16 18:28N 52°24' E 004°50'0 0.0
2018-Feb-16 17:55N 52°24' E 004°50'0 0.0
2018-Feb-16 17:28N 52°24' E 004°50'0 0.0
2018-Feb-16 16:58N 52°24' E 004°50'0 0.0
2018-Feb-16 16:25N 52°24' E 004°50'0 0.0
2018-Feb-16 15:49N 52°24' E 004°50'0 0.0
2018-Feb-16 15:22N 52°24' E 004°50'0 0.0
2018-Feb-16 14:58N 52°24' E 004°50'0 0.0
2018-Feb-16 14:28N 52°24' E 004°50'0 0.0
2018-Feb-16 13:58N 52°24' E 004°50'0 0.0
2018-Feb-16 13:07N 52°24' E 004°50'0 0.0
2018-Feb-16 12:43N 52°24' E 004°50'0 0.0
2018-Feb-16 12:28N 52°24' E 004°50'0 0.0
2018-Feb-16 11:49N 52°24' E 004°50'0 0.0
2018-Feb-16 11:22N 52°24' E 004°50'0 0.0
2018-Feb-16 10:55N 52°24' E 004°50'0 0.0
2018-Feb-16 10:25N 52°24' E 004°50'0 0.0
2018-Feb-16 09:58N 52°24' E 004°50'0 0.0
2018-Feb-16 09:28N 52°24' E 004°50'0 0.0
2018-Feb-16 08:58N 52°24' E 004°50'0 0.0
2018-Feb-16 08:28N 52°24' E 004°50'0 0.0
2018-Feb-16 07:46N 52°24' E 004°50'0 0.0
2018-Feb-16 07:22N 52°24' E 004°50'0 0.0
2018-Feb-16 06:55N 52°24' E 004°50'0 0.0
2018-Feb-16 06:28N 52°24' E 004°50'0 0.0
2018-Feb-16 05:55N 52°24' E 004°50'0 0.0
2018-Feb-16 05:19N 52°24' E 004°50'0 0.0
2018-Feb-16 04:52N 52°24' E 004°50'0 0.0
2018-Feb-16 04:25N 52°24' E 004°50'0 0.0
2018-Feb-16 03:58N 52°24' E 004°50'0 0.0
2018-Feb-16 03:28N 52°24' E 004°50'0 0.0
2018-Feb-16 02:58N 52°24' E 004°50'0 0.0
2018-Feb-16 02:28N 52°24' E 004°50'0 0.0
2018-Feb-16 01:52N 52°24' E 004°50'0 0.0
2018-Feb-16 01:28N 52°24' E 004°50'0 0.0
2018-Feb-16 00:55N 52°24' E 004°50'0 0.0
2018-Feb-16 00:28N 52°24' E 004°50'0 0.0
2018-Feb-15 23:55N 52°24' E 004°50'0 0.0
2018-Feb-15 23:19N 52°24' E 004°50'0 0.0
2018-Feb-15 22:58N 52°24' E 004°50'0 0.0
2018-Feb-15 22:28N 52°24' E 004°50'0 0.0
2018-Feb-15 21:58N 52°24' E 004°50'0 0.0
2018-Feb-15 21:28N 52°24' E 004°50'0 0.0
2018-Feb-15 20:55N 52°24' E 004°50'0 0.0
2018-Feb-15 20:13N 52°24' E 004°50'0 0.0
2018-Feb-15 19:58N 52°24' E 004°50'0 0.0
2018-Feb-15 19:25N 52°24' E 004°50'0 0.0
2018-Feb-15 18:55N 52°24' E 004°50'0 0.0
2018-Feb-15 18:16N 52°24' E 004°50'0 0.0
2018-Feb-15 17:52N 52°24' E 004°50'0 0.0
2018-Feb-15 17:25N 52°24' E 004°50'0 0.0
2018-Feb-15 16:55N 52°24' E 004°50'0 0.0
2018-Feb-15 16:22N 52°24' E 004°50'0 0.0
2018-Feb-15 15:55N 52°24' E 004°50'0 0.0
2018-Feb-15 15:28N 52°24' E 004°50'0 0.0
2018-Feb-15 14:55N 52°24' E 004°50'0 0.0
2018-Feb-15 14:28N 52°24' E 004°50'0 0.0
2018-Feb-15 13:55N 52°24' E 004°50'0 0.0
2018-Feb-15 13:28N 52°24' E 004°50'0 0.0
2018-Feb-15 12:46N 52°24' E 004°50'0 0.0
2018-Feb-15 12:28N 52°24' E 004°50'0 0.0
2018-Feb-15 11:58N 52°24' E 004°50'0 0.0
2018-Feb-15 11:28N 52°24' E 004°50'0 0.0
2018-Feb-15 10:55N 52°24' E 004°50'0 0.0
2018-Feb-15 10:19N 52°24' E 004°50'0 0.0
2018-Feb-15 09:58N 52°24' E 004°50'0 0.0
2018-Feb-15 09:25N 52°24' E 004°50'0 0.0
2018-Feb-15 08:55N 52°24' E 004°50'0 0.0
2018-Feb-15 08:28N 52°24' E 004°50'0 0.0
2018-Feb-15 07:58N 52°24' E 004°50'0 0.0
2018-Feb-15 07:28N 52°24' E 004°50'0 0.0
2018-Feb-15 06:40N 52°24' E 004°50'  
Track history (hours):
 
Tides and Currents Weather Stations Pressure Air Temp Water Temp Dewpoint Dewpoint Depression Visibility Wind Speed Wind Dir Waves Ship Positions

Torm Lilly

Last reported at 2018-Feb-25 06:39 UTC. Time now 2018-Feb-25 20:00 UTC.
Position N 59°33' E 022°47'.

Length 183 m; draft 12.7 m.

Type: Ship. MMSI: 220634000.

Date/timePositionNaut miles runAvg speedWind from/ knotsBaromVisibWave heightAir tempDewpointWater temp
2018-Feb-25 06:39N 59°33' E 022°47'313.5
2018-Feb-25 06:23N 59°34' E 022°54'913.4
2018-Feb-25 05:44N 59°36' E 023°10'313.8
2018-Feb-25 05:30N 59°37' E 023°16'713.8
2018-Feb-25 05:00N 59°39' E 023°29'713.5
2018-Feb-25 04:30N 59°41' E 023°42'613.0
2018-Feb-25 04:00N 59°43' E 023°54'713.1
2018-Feb-25 03:28N 59°45' E 024°08'613.1
2018-Feb-25 03:01N 59°47' E 024°19'613.0
2018-Feb-25 02:31N 59°48' E 024°32'713.3
2018-Feb-25 02:01N 59°50' E 024°45'713.1
2018-Feb-25 01:29N 59°52' E 024°58'1012.9
2018-Feb-25 00:43N 59°54' E 025°17'313.1
2018-Feb-25 00:30N 59°55' E 025°22'612.6
2018-Feb-25 00:00N 59°59' E 025°32'17 0.4
2018-Feb-23 08:48N 60°16' E 025°33'611.8
2018-Feb-23 08:18N 60°11' E 025°38'310.1
2018-Feb-23 07:57N 60°07' E 025°39'510.6
2018-Feb-23 07:28N 60°03' E 025°34'3 5.9
2018-Feb-23 07:00N 60°00' E 025°30'1 1.0
2018-Feb-23 06:28N 60°00' E 025°29'0 0.2
2018-Feb-23 05:58N 60°00' E 025°29'0 0.1
2018-Feb-23 05:28N 60°01' E 025°29'0 0.1
2018-Feb-23 04:58N 60°01' E 025°29'0 0.2
2018-Feb-23 04:28N 60°01' E 025°29'0 0.0
2018-Feb-23 03:58N 60°01' E 025°29'0 0.0
2018-Feb-23 03:28N 60°01' E 025°29'0 0.0
2018-Feb-23 02:58N 60°01' E 025°29'0 0.1
2018-Feb-23 02:28N 60°01' E 025°29'0 0.1
2018-Feb-23 01:58N 60°01' E 025°29'0 0.0
2018-Feb-23 01:25N 60°01' E 025°29'0 0.0
2018-Feb-23 00:58N 60°01' E 025°29'0 0.0
2018-Feb-23 00:28N 60°01' E 025°29'0 0.0
2018-Feb-22 23:58N 60°01' E 025°29'0 0.1
2018-Feb-22 23:28N 60°01' E 025°29'0 0.0
2018-Feb-22 22:58N 60°00' E 025°29'0 0.1
2018-Feb-22 22:28N 60°00' E 025°29'0 0.1
2018-Feb-22 21:58N 60°00' E 025°29'0 0.1
2018-Feb-22 21:28N 60°00' E 025°29'0 0.2
2018-Feb-22 20:52N 60°00' E 025°29'0 1.0
2018-Feb-22 20:30N 60°00' E 025°30'4 8.4
2018-Feb-22 20:00N 59°56' E 025°28'713.2
2018-Feb-22 19:29N 59°51' E 025°20'612.6
2018-Feb-22 19:00N 59°48' E 025°09'713.2
2018-Feb-22 18:30N 59°47' E 024°56'713.4
2018-Feb-22 18:00N 59°45' E 024°43'713.2
2018-Feb-22 17:30N 59°44' E 024°30'713.1
2018-Feb-22 17:00N 59°41' E 024°18'713.4
2018-Feb-22 16:30N 59°36' E 024°10'713.8
2018-Feb-22 16:00N 59°30' E 024°02'713.9
2018-Feb-22 15:30N 59°28' E 023°49'714.1
2018-Feb-22 15:00N 59°27' E 023°35'713.8
2018-Feb-22 14:29N 59°24' E 023°22'27313.2
2018-Feb-21 17:44N 56°15' E 017°13'813.3
2018-Feb-21 17:09N 56°10' E 017°02'213.3
2018-Feb-21 17:00N 56°09' E 016°59'713.4
2018-Feb-21 16:31N 56°05' E 016°49'713.4
2018-Feb-21 16:00N 56°02' E 016°39'713.5
2018-Feb-21 15:31N 55°59' E 016°28'713.4
2018-Feb-21 15:01N 55°55' E 016°18'713.6
2018-Feb-21 14:31N 55°52' E 016°07'713.7
2018-Feb-21 14:00N 55°48' E 015°57'713.8
2018-Feb-21 13:30N 55°45' E 015°46'713.7
2018-Feb-21 13:00N 55°42' E 015°35'713.8
2018-Feb-21 12:31N 55°39' E 015°24'713.8
2018-Feb-21 12:00N 55°35' E 015°14'713.7
2018-Feb-21 11:30N 55°32' E 015°03'813.7
2018-Feb-21 10:53N 55°27' E 014°50'513.6
2018-Feb-21 10:30N 55°25' E 014°42'813.6
2018-Feb-21 09:54N 55°19' E 014°33'513.5
2018-Feb-21 09:30N 55°15' E 014°27'713.3
2018-Feb-21 08:58N 55°09' E 014°19'712.6
2018-Feb-21 08:22N 55°10' E 014°05'2213.5
2018-Feb-21 06:46N 55°11' E 013°28'413.5
2018-Feb-21 06:30N 55°12' E 013°21'713.6
2018-Feb-21 05:59N 55°12' E 013°09'713.5
2018-Feb-21 05:30N 55°14' E 012°58'713.5
2018-Feb-21 05:00N 55°16' E 012°47'612.0
2018-Feb-21 04:30N 55°19' E 012°38'713.6
2018-Feb-21 04:00N 55°26' E 012°40'611.7
2018-Feb-21 03:30N 55°31' E 012°45'4 8.8
2018-Feb-21 03:00N 55°35' E 012°50'5 9.2
2018-Feb-21 02:30N 55°38' E 012°55'510.4
2018-Feb-21 02:00N 55°43' E 012°53'714.1
2018-Feb-21 01:30N 55°49' E 012°46'713.9
2018-Feb-21 01:00N 55°56' E 012°43'714.1
2018-Feb-21 00:30N 56°03' E 012°39'612.2
2018-Feb-21 00:00N 56°07' E 012°31'3 6.7
2018-Feb-20 23:30N 56°09' E 012°26'611.1
2018-Feb-20 23:00N 56°12' E 012°18'4913.2
2018-Feb-20 19:17N 56°57' E 011°44'414.0
2018-Feb-20 19:00N 57°01' E 011°42'813.6
2018-Feb-20 18:26N 57°08' E 011°37'613.5
2018-Feb-20 18:00N 57°13' E 011°33'713.5
2018-Feb-20 17:30N 57°20' E 011°29'713.2
2018-Feb-20 17:00N 57°26' E 011°25'612.6
2018-Feb-20 16:30N 57°31' E 011°18'612.8
2018-Feb-20 16:00N 57°35' E 011°09'612.9
2018-Feb-20 15:30N 57°39' E 010°60'713.5
2018-Feb-20 15:00N 57°44' E 010°51'612.8
2018-Feb-20 14:31N 57°48' E 010°41'612.5
2018-Feb-20 14:00N 57°50' E 010°30'26212.1
2018-Feb-19 16:28N 54°39' E 005°07'813.6
2018-Feb-19 15:54N 54°33' E 004°60'513.6
2018-Feb-19 15:30N 54°28' E 004°55'713.7
2018-Feb-19 14:59N 54°22' E 004°49'713.8
2018-Feb-19 14:30N 54°16' E 004°45'11211.9
2018-Feb-19 05:01N 52°31' E 003°35'512.6
2018-Feb-19 04:36N 52°31' E 003°43'312.6
2018-Feb-19 04:23N 52°31' E 003°48'512.6
2018-Feb-19 03:58N 52°31' E 003°56'612.8
2018-Feb-19 03:30N 52°31' E 004°06'713.6
2018-Feb-19 03:00N 52°31' E 004°17'713.7
2018-Feb-19 02:30N 52°28' E 004°28'510.2
2018-Feb-19 02:00N 52°28' E 004°36'0 0.7
2018-Feb-19 01:30N 52°28' E 004°37'3 5.8
2018-Feb-19 01:00N 52°27' E 004°41'3 6.2
2018-Feb-19 00:30N 52°25' E 004°45'0 0.1
2018-Feb-18 23:55N 52°25' E 004°45'0 0.0
2018-Feb-18 22:58N 52°25' E 004°45'0 0.0
2018-Feb-18 21:52N 52°25' E 004°45'0 0.0
2018-Feb-18 21:16N 52°25' E 004°45'0 0.0
2018-Feb-18 20:55N 52°25' E 004°45'0 0.0
2018-Feb-18 20:22N 52°25' E 004°45'0 0.0
2018-Feb-18 19:52N 52°25' E 004°45'0 0.0
2018-Feb-18 19:28N 52°25' E 004°45'0 0.0
2018-Feb-18 18:58N 52°25' E 004°45'0 0.0
2018-Feb-18 18:28N 52°25' E 004°45'0 0.0
2018-Feb-18 17:04N 52°25' E 004°45'0 0.0
2018-Feb-18 16:46N 52°25' E 004°45'0 0.0
2018-Feb-18 16:16N 52°25' E 004°45'0 0.0
2018-Feb-18 13:58N 52°25' E 004°45'0 0.0
2018-Feb-18 13:19N 52°25' E 004°45'0 0.0
2018-Feb-18 12:58N 52°25' E 004°45'0 0.0
2018-Feb-18 12:04N 52°25' E 004°45'0 0.0
2018-Feb-18 11:46N 52°25' E 004°45'0 0.0
2018-Feb-18 11:28N 52°25' E 004°45'0 0.0
2018-Feb-18 10:40N 52°25' E 004°45'0 0.0
2018-Feb-18 10:28N 52°25' E 004°45'0 0.0
2018-Feb-18 09:43N 52°25' E 004°45'0 0.0
2018-Feb-18 09:28N 52°25' E 004°45'0 0.0
2018-Feb-18 08:58N 52°25' E 004°45'0 0.0
2018-Feb-18 08:28N 52°25' E 004°45'0 0.0
2018-Feb-18 07:58N 52°25' E 004°45'0 0.0
2018-Feb-18 07:28N 52°25' E 004°45'0 0.0
2018-Feb-18 06:46N 52°25' E 004°45'0 0.0
2018-Feb-18 06:28N 52°25' E 004°45'0 0.0
2018-Feb-18 05:40N 52°25' E 004°45'0 0.0
2018-Feb-18 05:28N 52°25' E 004°45'0 0.0
2018-Feb-18 04:52N 52°25' E 004°45'0 0.0
2018-Feb-18 04:22N 52°25' E 004°45'0 0.0
2018-Feb-18 03:16N 52°25' E 004°45'0 0.0
2018-Feb-18 03:00N 52°25' E 004°45'0 0.7
2018-Feb-18 02:30N 52°25' E 004°45'1 2.9
2018-Feb-18 02:00N 52°26' E 004°47'3 6.8
2018-Feb-18 01:30N 52°24' E 004°52'0 0.9
2018-Feb-18 01:00N 52°24' E 004°52'0 0.1
2018-Feb-18 00:31N 52°24' E 004°52'0 0.1
2018-Feb-18 00:01N 52°24' E 004°52'0 0.0
2018-Feb-17 23:30N 52°24' E 004°52'0 0.0
2018-Feb-17 23:00N 52°24' E 004°52'0 0.0
2018-Feb-17 22:30N 52°24' E 004°52'0 0.0
2018-Feb-17 22:00N 52°24' E 004°52'0 0.0
2018-Feb-17 21:30N 52°24' E 004°52'0 0.0
2018-Feb-17 21:01N 52°24' E 004°52'0 0.0
2018-Feb-17 20:30N 52°24' E 004°52'0 0.0
2018-Feb-17 20:01N 52°24' E 004°52'0 0.0
2018-Feb-17 19:31N 52°24' E 004°52'0 0.0
2018-Feb-17 19:01N 52°24' E 004°52'0 0.0
2018-Feb-17 18:30N 52°24' E 004°52'0 0.0
2018-Feb-17 18:01N 52°24' E 004°52'0 0.0
2018-Feb-17 17:31N 52°24' E 004°52'0 0.0
2018-Feb-17 17:00N 52°24' E 004°52'0 0.0
2018-Feb-17 16:30N 52°24' E 004°52'0 0.0
2018-Feb-17 16:00N 52°24' E 004°52'0 0.0
2018-Feb-17 15:30N 52°24' E 004°52'0 0.0
2018-Feb-17 15:00N 52°24' E 004°52'0 0.0
2018-Feb-17 14:30N 52°24' E 004°52'0 0.0
2018-Feb-17 14:01N 52°24' E 004°52'0 0.0
2018-Feb-17 13:31N 52°24' E 004°52'0 0.0
2018-Feb-17 13:00N 52°24' E 004°52'0 0.0
2018-Feb-17 12:31N 52°24' E 004°52'0 0.0
2018-Feb-17 12:01N 52°24' E 004°52'0 0.0
2018-Feb-17 11:31N 52°24' E 004°52'0 0.0
2018-Feb-17 11:01N 52°24' E 004°52'0 0.0
2018-Feb-17 10:30N 52°24' E 004°52'0 0.0
2018-Feb-17 10:00N 52°24' E 004°52'0 0.0
2018-Feb-17 09:31N 52°24' E 004°52'0 0.0
2018-Feb-17 09:01N 52°24' E 004°52'0 0.0
2018-Feb-17 08:31N 52°24' E 004°52'0 0.0
2018-Feb-17 08:00N 52°24' E 004°52'0 0.0
2018-Feb-17 07:30N 52°24' E 004°52'0 0.0
2018-Feb-17 07:01N 52°24' E 004°52'0 0.0
2018-Feb-17 06:31N 52°24' E 004°52'0 0.0
2018-Feb-17 06:01N 52°24' E 004°52'0 0.0
2018-Feb-17 05:30N 52°24' E 004°52'0 0.0
2018-Feb-17 05:01N 52°24' E 004°52'0 0.0
2018-Feb-17 04:30N 52°24' E 004°52'0 0.0
2018-Feb-17 04:00N 52°24' E 004°52'0 0.0
2018-Feb-17 03:31N 52°24' E 004°52'0 0.0
2018-Feb-17 03:01N 52°24' E 004°52'0 0.0
2018-Feb-17 02:30N 52°24' E 004°52'0 0.0
2018-Feb-17 02:01N 52°24' E 004°52'0 0.0
2018-Feb-17 01:31N 52°24' E 004°52'0 0.0
2018-Feb-17 01:01N 52°24' E 004°52'0 0.0
2018-Feb-17 00:31N 52°24' E 004°52'0 0.0
2018-Feb-17 00:01N 52°24' E 004°52'0 0.0
2018-Feb-16 23:30N 52°24' E 004°52'0 0.0
2018-Feb-16 23:01N 52°24' E 004°52'0 0.0
2018-Feb-16 22:31N 52°24' E 004°52'0 0.2
2018-Feb-16 22:01N 52°24' E 004°52'1 1.8
2018-Feb-16 21:31N 52°25' E 004°52'2 3.1
2018-Feb-16 21:00N 52°25' E 004°49'0 0.8
2018-Feb-16 20:28N 52°24' E 004°50'0 0.0
2018-Feb-16 19:43N 52°24' E 004°50'0 0.0
2018-Feb-16 19:25N 52°24' E 004°50'0 0.0
2018-Feb-16 18:55N 52°24' E 004°50'0 0.0
2018-Feb-16 18:28N 52°24' E 004°50'0 0.0
2018-Feb-16 17:55N 52°24' E 004°50'0 0.0
2018-Feb-16 17:28N 52°24' E 004°50'0 0.0
2018-Feb-16 16:58N 52°24' E 004°50'0 0.0
2018-Feb-16 16:25N 52°24' E 004°50'0 0.0
2018-Feb-16 15:49N 52°24' E 004°50'0 0.0
2018-Feb-16 15:22N 52°24' E 004°50'0 0.0
2018-Feb-16 14:58N 52°24' E 004°50'0 0.0
2018-Feb-16 14:28N 52°24' E 004°50'0 0.0
2018-Feb-16 13:58N 52°24' E 004°50'0 0.0
2018-Feb-16 13:07N 52°24' E 004°50'0 0.0
2018-Feb-16 12:43N 52°24' E 004°50'0 0.0
2018-Feb-16 12:28N 52°24' E 004°50'0 0.0
2018-Feb-16 11:49N 52°24' E 004°50'0 0.0
2018-Feb-16 11:22N 52°24' E 004°50'0 0.0
2018-Feb-16 10:55N 52°24' E 004°50'0 0.0
2018-Feb-16 10:25N 52°24' E 004°50'0 0.0
2018-Feb-16 09:58N 52°24' E 004°50'0 0.0
2018-Feb-16 09:28N 52°24' E 004°50'0 0.0
2018-Feb-16 08:58N 52°24' E 004°50'0 0.0
2018-Feb-16 08:28N 52°24' E 004°50'0 0.0
2018-Feb-16 07:46N 52°24' E 004°50'0 0.0
2018-Feb-16 07:22N 52°24' E 004°50'0 0.0
2018-Feb-16 06:55N 52°24' E 004°50'0 0.0
2018-Feb-16 06:28N 52°24' E 004°50'0 0.0
2018-Feb-16 05:55N 52°24' E 004°50'0 0.0
2018-Feb-16 05:19N 52°24' E 004°50'0 0.0
2018-Feb-16 04:52N 52°24' E 004°50'0 0.0
2018-Feb-16 04:25N 52°24' E 004°50'0 0.0
2018-Feb-16 03:58N 52°24' E 004°50'0 0.0
2018-Feb-16 03:28N 52°24' E 004°50'0 0.0
2018-Feb-16 02:58N 52°24' E 004°50'0 0.0
2018-Feb-16 02:28N 52°24' E 004°50'0 0.0
2018-Feb-16 01:52N 52°24' E 004°50'0 0.0
2018-Feb-16 01:28N 52°24' E 004°50'0 0.0
2018-Feb-16 00:55N 52°24' E 004°50'0 0.0
2018-Feb-16 00:28N 52°24' E 004°50'0 0.0
2018-Feb-15 23:55N 52°24' E 004°50'0 0.0
2018-Feb-15 23:19N 52°24' E 004°50'0 0.0
2018-Feb-15 22:58N 52°24' E 004°50'0 0.0
2018-Feb-15 22:28N 52°24' E 004°50'0 0.0
2018-Feb-15 21:58N 52°24' E 004°50'0 0.0
2018-Feb-15 21:28N 52°24' E 004°50'0 0.0
2018-Feb-15 20:55N 52°24' E 004°50'0 0.0
2018-Feb-15 20:13N 52°24' E 004°50'0 0.0
2018-Feb-15 19:58N 52°24' E 004°50'0 0.0
2018-Feb-15 19:25N 52°24' E 004°50'0 0.0
2018-Feb-15 18:55N 52°24' E 004°50'0 0.0
2018-Feb-15 18:16N 52°24' E 004°50'0 0.0
2018-Feb-15 17:52N 52°24' E 004°50'0 0.0
2018-Feb-15 17:25N 52°24' E 004°50'0 0.0
2018-Feb-15 16:55N 52°24' E 004°50'0 0.0
2018-Feb-15 16:22N 52°24' E 004°50'0 0.0
2018-Feb-15 15:55N 52°24' E 004°50'0 0.0
2018-Feb-15 15:28N 52°24' E 004°50'0 0.0
2018-Feb-15 14:55N 52°24' E 004°50'0 0.0
2018-Feb-15 14:28N 52°24' E 004°50'0 0.0
2018-Feb-15 13:55N 52°24' E 004°50'0 0.0
2018-Feb-15 13:28N 52°24' E 004°50'0 0.0
2018-Feb-15 12:46N 52°24' E 004°50'0 0.0
2018-Feb-15 12:28N 52°24' E 004°50'0 0.0
2018-Feb-15 11:58N 52°24' E 004°50'0 0.0
2018-Feb-15 11:28N 52°24' E 004°50'0 0.0
2018-Feb-15 10:55N 52°24' E 004°50'0 0.0
2018-Feb-15 10:19N 52°24' E 004°50'0 0.0
2018-Feb-15 09:58N 52°24' E 004°50'0 0.0
2018-Feb-15 09:25N 52°24' E 004°50'0 0.0
2018-Feb-15 08:55N 52°24' E 004°50'0 0.0
2018-Feb-15 08:28N 52°24' E 004°50'0 0.0
2018-Feb-15 07:58N 52°24' E 004°50'0 0.0
2018-Feb-15 07:28N 52°24' E 004°50'0 0.0
2018-Feb-15 06:40N 52°24' E 004°50'  

Dump ship's entire track history